Time;durP1;ratioP1;P1;durP2;ratioP2;P2;SDS_P1;SDS_P2;PMS_P1;PMS_P2;Temp;Humidity;BMP_temperature;BMP_pressure;BME280_temperature;BME280_humidity;BME280_pressure;Samples;Min_cycle;Max_cycle;Signal;HPM_P1;HPM_P2
2023/04/11 00:04:11;;;;;;;29.50;3.70;;;11.70;99.90;;;;;;10495159;28;20068;-28
2023/04/11 00:09:13;;;;;;;20.20;3.22;;;10.50;99.90;;;;;;10480289;28;20106;-33
2023/04/11 00:14:16;;;;;;;22.70;4.05;;;11.30;99.90;;;;;;10500810;28;20218;-30
2023/04/11 00:19:22;;;;;;;24.38;4.20;;;10.90;99.90;;;;;;10495858;28;20409;-29
2023/04/11 00:24:24;;;;;;;14.20;3.58;;;11.30;99.90;;;;;;10493270;28;20064;-28
2023/04/11 00:29:27;;;;;;;37.80;3.78;;;11.70;99.90;;;;;;10499792;28;20565;-31
2023/04/11 00:34:30;;;;;;;32.10;3.97;;;11.40;99.90;;;;;;10506789;28;20123;-30
2023/04/11 00:39:33;;;;;;;31.52;3.80;;;11.70;99.90;;;;;;10502083;28;20047;-28
2023/04/11 00:44:39;;;;;;;17.27;2.90;;;11.70;99.90;;;;;;10504548;28;20051;-28
2023/04/11 00:49:41;;;;;;;22.40;2.92;;;11.90;99.90;;;;;;10484698;28;20050;-30
2023/04/11 00:54:43;;;;;;;17.27;2.00;;;10.70;99.90;;;;;;10490189;28;20053;-28
2023/04/11 00:59:48;;;;;;;15.57;2.25;;;10.60;99.90;;;;;;10509085;28;20052;-29
2023/04/11 01:04:50;;;;;;;16.80;2.40;;;10.50;99.90;;;;;;10492509;28;20055;-28
2023/04/11 01:09:53;;;;;;;12.50;2.28;;;10.10;99.90;;;;;;10494627;28;20147;-29
2023/04/11 01:14:57;;;;;;;16.92;2.55;;;10.70;99.90;;;;;;10485866;28;20143;-28
2023/04/11 01:19:59;;;;;;;18.30;1.85;;;10.30;99.90;;;;;;10487975;28;20325;-28
2023/04/11 01:25:03;;;;;;;19.10;2.33;;;10.90;99.90;;;;;;10488803;28;20040;-29
2023/04/11 01:30:06;;;;;;;15.40;2.53;;;10.70;99.90;;;;;;10499293;28;20140;-28
2023/04/11 01:35:08;;;;;;;;;;;10.10;99.90;;;;;;10485682;28;20059;-29
2023/04/11 01:40:14;;;;;;;15.10;2.67;;;10.50;99.90;;;;;;10502171;28;20335;-30
2023/04/11 01:45:16;;;;;;;12.05;2.65;;;10.70;99.90;;;;;;10483871;28;20130;-26
2023/04/11 01:50:18;;;;;;;16.97;3.73;;;11.00;99.90;;;;;;10473803;28;20127;-28
2023/04/11 01:55:21;;;;;;;19.55;2.55;;;10.60;99.90;;;;;;10462913;28;20051;-29
2023/04/11 02:00:23;;;;;;;17.40;1.90;;;10.00;99.90;;;;;;10493836;28;20062;-29
2023/04/11 02:05:24;;;;;;;19.83;3.45;;;10.20;99.90;;;;;;10488636;28;20101;-27
2023/04/11 02:10:28;;;;;;;17.35;2.05;;;10.00;99.90;;;;;;10491090;28;20139;-31
2023/04/11 02:15:30;;;;;;;16.88;2.35;;;10.00;99.90;;;;;;10474849;28;20088;-27
2023/04/11 02:20:31;;;;;;;15.93;2.38;;;9.70;99.90;;;;;;10496739;28;20048;-27
2023/04/11 02:25:35;;;;;;;17.48;2.97;;;9.90;99.90;;;;;;10475335;28;20549;-29
2023/04/11 02:30:37;;;;;;;19.77;2.95;;;9.30;99.90;;;;;;10498763;28;20056;-28
2023/04/11 02:35:39;;;;;;;17.20;2.05;;;9.30;99.90;;;;;;10490173;28;20052;-28
2023/04/11 02:40:42;;;;;;;15.57;2.20;;;10.40;99.90;;;;;;10496990;28;20536;-29
2023/04/11 02:45:44;;;;;;;10.93;2.40;;;9.60;99.90;;;;;;10491698;28;20080;-29
2023/04/11 02:50:46;;;;;;;21.17;2.55;;;9.80;99.90;;;;;;10472212;28;20047;-31
2023/04/11 02:55:50;;;;;;;12.38;2.30;;;9.90;99.90;;;;;;10485966;28;20061;-29
2023/04/11 03:00:52;;;;;;;13.55;2.53;;;9.90;99.90;;;;;;10497951;28;20048;-29
2023/04/11 03:05:55;;;;;;;14.77;1.70;;;10.10;99.90;;;;;;10490981;28;20131;-29
2023/04/11 03:10:59;;;;;;;8.32;1.92;;;9.60;99.90;;;;;;10496975;28;20097;-31
2023/04/11 03:16:01;;;;;;;12.88;1.92;;;10.00;99.90;;;;;;10499457;28;20067;-27
2023/04/11 03:21:03;;;;;;;17.52;2.33;;;10.20;99.90;;;;;;10489164;28;20084;-29
2023/04/11 03:26:07;;;;;;;20.27;2.40;;;10.00;99.90;;;;;;10490336;28;20126;-28
2023/04/11 03:31:10;;;;;;;13.65;2.08;;;9.80;99.90;;;;;;10488962;28;20641;-29
2023/04/11 03:36:12;;;;;;;10.95;1.58;;;9.90;99.90;;;;;;10494040;28;20114;-31
2023/04/11 03:41:15;;;;;;;12.70;2.30;;;9.30;99.90;;;;;;10506277;28;20084;-30
2023/04/11 03:46:17;;;;;;;18.92;2.28;;;9.20;99.90;;;;;;10480332;28;20100;-28
2023/04/11 03:51:19;;;;;;;12.10;1.63;;;9.60;99.90;;;;;;10496313;28;20131;-26
2023/04/11 03:56:23;;;;;;;14.05;1.98;;;9.70;99.90;;;;;;10485057;28;20138;-31
2023/04/11 04:01:25;;;;;;;11.80;1.88;;;9.50;99.90;;;;;;10481760;28;20474;-31
2023/04/11 04:06:27;;;;;;;16.20;2.20;;;9.60;99.90;;;;;;10494337;28;20047;-28
2023/04/11 04:11:30;;;;;;;18.43;1.53;;;9.80;99.90;;;;;;10498683;28;20797;-30
2023/04/11 04:16:32;;;;;;;17.15;1.83;;;9.40;99.90;;;;;;10497290;28;20080;-28
2023/04/11 04:21:36;;;;;;;14.45;1.60;;;9.50;99.90;;;;;;10512996;28;20466;-27
2023/04/11 04:26:40;;;;;;;16.38;2.30;;;9.80;99.90;;;;;;10481113;28;20097;-28
2023/04/11 04:31:42;;;;;;;12.60;1.50;;;9.90;99.90;;;;;;10489022;28;20448;-27
2023/04/11 04:36:46;;;;;;;15.80;1.80;;;9.40;99.90;;;;;;10495316;28;20059;-29
2023/04/11 04:41:56;;;;;;;15.75;2.03;;;10.00;99.90;;;;;;10491917;28;20041;-29
2023/04/11 04:46:58;;;;;;;14.43;2.33;;;9.80;99.90;;;;;;10486252;28;20062;-32
2023/04/11 04:52:00;;;;;;;17.80;2.80;;;9.70;99.90;;;;;;10479286;28;20069;-28
2023/04/11 04:57:04;;;;;;;15.30;2.23;;;9.80;99.90;;;;;;10485123;28;20083;-28
2023/04/11 05:02:05;;;;;;;9.07;1.85;;;9.50;99.90;;;;;;10482512;28;20093;-30
2023/04/11 05:07:07;;;;;;;17.42;2.58;;;10.60;99.90;;;;;;10505393;28;20481;-27
2023/04/11 05:12:12;;;;;;;26.40;3.90;;;10.20;99.90;;;;;;10489482;28;20139;-28
2023/04/11 05:17:15;;;;;;;17.73;2.28;;;9.80;99.90;;;;;;10484691;28;20057;-28
2023/04/11 05:22:17;;;;;;;6.25;1.55;;;10.40;99.90;;;;;;10491833;28;20052;-30
2023/04/11 05:27:20;;;;;;;19.65;2.60;;;9.90;99.90;;;;;;10484668;28;20049;-29
2023/04/11 05:32:22;;;;;;;15.88;2.22;;;10.20;99.90;;;;;;10483040;28;20109;-29
2023/04/11 05:37:24;;;;;;;23.85;2.75;;;10.10;99.90;;;;;;10492152;28;20496;-28
2023/04/11 05:42:28;;;;;;;17.52;2.40;;;9.60;99.90;;;;;;10484145;28;20461;-27
2023/04/11 05:47:30;;;;;;;15.05;2.90;;;9.30;99.90;;;;;;10488570;28;20477;-29
2023/04/11 05:52:31;;;;;;;8.82;1.48;;;10.40;99.90;;;;;;10490178;28;20044;-31
2023/04/11 05:57:35;;;;;;;27.55;2.85;;;10.40;99.90;;;;;;10497221;28;20074;-28
2023/04/11 06:02:37;;;;;;;20.45;2.10;;;9.50;99.90;;;;;;10488031;28;20133;-29
2023/04/11 06:07:40;;;;;;;15.85;2.58;;;10.40;99.90;;;;;;10488472;28;20439;-29
2023/04/11 11:50:01;;;;;;;12.50;1.73;;;12.60;95.70;;;;;;10529411;27;1549964;-29
2023/04/11 11:55:05;;;;;;;6.90;1.45;;;12.90;87.90;;;;;;10558569;28;20059;-29
2023/04/11 12:00:10;;;;;;;20.55;2.70;;;12.30;73.90;;;;;;10546578;28;20424;-29
2023/04/11 12:05:14;;;;;;;13.48;2.45;;;12.70;83.20;;;;;;10557784;28;20446;-36
2023/04/11 12:10:17;;;;;;;12.43;2.03;;;12.50;92.20;;;;;;10556001;28;20044;-37
2023/04/11 12:15:21;;;;;;;15.18;2.08;;;13.20;96.50;;;;;;10554036;28;20072;-35
2023/04/11 12:20:26;;;;;;;11.57;2.38;;;12.70;97.00;;;;;;10543572;28;20055;-31
2023/04/11 12:25:29;;;;;;;13.48;2.28;;;12.70;93.60;;;;;;10547726;28;20117;-34
2023/04/11 12:30:30;;;;;;;11.75;2.13;;;13.40;76.30;;;;;;10540626;28;20105;-35
2023/04/11 12:35:34;;;;;;;8.33;1.90;;;12.80;71.00;;;;;;10556238;28;20097;-37
2023/04/11 12:40:36;;;;;;;15.20;2.10;;;14.60;92.40;;;;;;10556141;28;20090;-31
2023/04/11 12:45:38;;;;;;;7.85;1.65;;;12.90;82.00;;;;;;10545144;28;20131;-37
2023/04/11 12:50:42;;;;;;;20.80;2.83;;;12.90;70.60;;;;;;10554430;28;20511;-36
2023/04/11 12:55:44;;;;;;;13.85;1.70;;;13.30;82.00;;;;;;10556096;28;20040;-36
2023/04/11 13:00:46;;;;;;;13.32;1.58;;;14.10;78.60;;;;;;10527133;28;20043;-35
2023/04/11 13:05:49;;;;;;;11.88;2.13;;;14.40;71.60;;;;;;10518660;28;20044;-30
2023/04/11 13:10:51;;;;;;;11.27;3.00;;;14.30;85.30;;;;;;10519147;28;20048;-32
2023/04/11 13:15:53;;;;;;;10.68;2.53;;;14.70;73.70;;;;;;10521103;28;20494;-29
2023/04/11 13:20:56;;;;;;;20.15;2.05;;;15.20;78.60;;;;;;10532593;28;20146;-28
2023/04/11 13:25:59;;;;;;;16.85;2.60;;;14.90;66.10;;;;;;10531964;28;20510;-30
2023/04/11 13:31:01;;;;;;;11.20;1.55;;;15.00;67.30;;;;;;10525384;28;20047;-30
2023/04/11 13:36:05;;;;;;;21.95;2.47;;;15.30;95.20;;;;;;10511884;28;20076;-33
2023/04/11 13:41:07;;;;;;;9.32;1.95;;;14.70;78.00;;;;;;10514903;28;20044;-30
2023/04/11 13:46:10;;;;;;;13.57;1.53;;;15.90;91.00;;;;;;10521182;28;20087;-31
2023/04/11 13:51:13;;;;;;;;;;;16.30;61.20;;;;;;10522869;28;20474;-33
2023/04/11 13:56:14;;;;;;;;;;;16.60;89.30;;;;;;10520766;28;20013;-30
2023/04/11 14:01:16;;;;;;;10.10;1.02;;;17.50;65.50;;;;;;10526812;28;20356;-32
2023/04/11 14:06:21;;;;;;;8.25;1.98;;;18.10;63.80;;;;;;10524598;28;20055;-31
2023/04/11 14:11:23;;;;;;;8.88;1.27;;;17.60;67.10;;;;;;10516012;28;20130;-31
2023/04/11 14:16:24;;;;;;;8.80;1.03;;;18.00;61.90;;;;;;10520585;28;20129;-31
2023/04/11 14:21:28;;;;;;;6.65;1.20;;;17.60;64.50;;;;;;10512963;28;20142;-29
2023/04/11 14:26:30;;;;;;;6.40;2.03;;;18.10;54.10;;;;;;10521120;28;20052;-29
2023/04/11 14:31:32;;;;;;;7.90;1.17;;;18.10;61.00;;;;;;10521887;28;20184;-28
2023/04/11 14:36:35;;;;;;;10.63;1.53;;;17.90;61.50;;;;;;10503886;28;20040;-31
2023/04/11 14:41:37;;;;;;;7.60;1.00;;;17.80;55.30;;;;;;10517385;28;20927;-32
2023/04/11 14:46:38;;;;;;;10.73;1.50;;;18.10;52.60;;;;;;10509016;28;20144;-30
2023/04/11 14:51:42;;;;;;;8.68;1.10;;;17.60;59.00;;;;;;10511974;28;20552;-30
2023/04/11 14:56:44;;;;;;;11.07;1.40;;;19.40;52.20;;;;;;10502742;28;20100;-31
2023/04/11 15:01:46;;;;;;;5.10;1.30;;;18.80;51.80;;;;;;10525058;28;20052;-33
2023/04/11 15:06:49;;;;;;;9.00;1.50;;;18.60;64.20;;;;;;10510549;28;20070;-30
2023/04/11 15:11:51;;;;;;;9.98;1.02;;;18.40;57.70;;;;;;10490184;28;20131;-34
2023/04/11 15:16:53;;;;;;;5.40;1.20;;;19.10;65.90;;;;;;10508869;28;20560;-30
2023/04/11 15:21:56;;;;;;;10.57;1.20;;;19.40;63.00;;;;;;10508116;28;20131;-30
2023/04/11 15:26:58;;;;;;;7.60;1.52;;;18.60;53.60;;;;;;10508936;28;20056;-30
2023/04/11 15:32:02;;;;;;;7.13;1.30;;;18.70;59.70;;;;;;10501380;28;20130;-29
2023/04/11 15:37:12;;;;;;;7.32;1.13;;;19.30;64.60;;;;;;10515730;28;20097;-30
2023/04/11 15:42:14;;;;;;;10.98;1.88;;;19.40;57.10;;;;;;10512695;28;20536;-34
2023/04/11 15:47:17;;;;;;;5.60;1.10;;;19.50;52.60;;;;;;10493161;28;20521;-29
2023/04/11 15:52:20;;;;;;;3.42;1.10;;;19.60;57.00;;;;;;10491562;28;20076;-29
2023/04/11 15:57:23;;;;;;;4.03;1.10;;;19.30;50.90;;;;;;10513882;28;20054;-30
2023/04/11 16:02:25;;;;;;;11.68;2.83;;;19.90;60.10;;;;;;10507243;28;20044;-30
2023/04/11 16:07:28;;;;;;;7.00;1.67;;;19.90;55.30;;;;;;10501289;28;20055;-29
2023/04/11 16:12:30;;;;;;;6.95;1.73;;;20.30;52.90;;;;;;10512313;28;20106;-35
2023/04/11 16:17:32;;;;;;;9.13;1.55;;;19.50;57.80;;;;;;10510522;28;20120;-34
2023/04/11 16:22:36;;;;;;;7.82;1.10;;;19.80;52.20;;;;;;10515992;28;20067;-31
2023/04/11 16:27:38;;;;;;;13.32;2.28;;;20.30;61.50;;;;;;10502087;28;20072;-37
2023/04/11 16:32:39;;;;;;;17.02;2.25;;;18.60;57.60;;;;;;10508227;28;20067;-33
2023/04/11 16:37:43;;;;;;;14.20;2.58;;;19.50;52.70;;;;;;10513196;28;20101;-29
2023/04/11 16:42:44;;;;;;;3.38;0.88;;;19.90;62.00;;;;;;10525121;28;20731;-30
2023/04/11 16:47:46;;;;;;;15.82;2.15;;;19.90;71.80;;;;;;10520296;28;20135;-31
2023/04/11 16:52:50;;;;;;;13.87;2.00;;;17.60;58.10;;;;;;10512155;28;20158;-33
2023/04/11 16:57:51;;;;;;;12.32;1.70;;;17.50;88.90;;;;;;10507291;28;20481;-31
2023/04/11 17:02:53;;;;;;;9.33;2.57;;;19.20;83.00;;;;;;10518363;28;20476;-32
2023/04/11 17:07:56;;;;;;;10.77;2.03;;;19.10;76.30;;;;;;10523937;28;20066;-30
2023/04/11 17:12:58;;;;;;;13.30;2.03;;;18.00;82.30;;;;;;10523159;28;20950;-31
2023/04/11 17:18:00;;;;;;;12.93;1.80;;;17.30;75.80;;;;;;10517438;28;20048;-30
2023/04/11 17:23:03;;;;;;;8.47;2.10;;;17.10;64.40;;;;;;10507773;28;20463;-31
2023/04/11 17:28:05;;;;;;;11.55;1.85;;;17.30;78.10;;;;;;10510678;28;20036;-30
2023/04/11 17:33:08;;;;;;;12.48;1.50;;;16.90;65.10;;;;;;10512018;28;20784;-32
2023/04/11 17:38:11;;;;;;;9.68;1.92;;;17.10;92.10;;;;;;10523162;28;20079;-31
2023/04/11 17:43:14;;;;;;;10.15;1.52;;;15.40;92.40;;;;;;10527575;28;20044;-31
2023/04/11 17:48:17;;;;;;;13.48;1.75;;;17.20;71.40;;;;;;10498294;28;20131;-31
2023/04/11 17:53:20;;;;;;;11.70;2.33;;;18.90;79.60;;;;;;10502493;28;20489;-30
2023/04/11 17:58:22;;;;;;;7.30;1.13;;;18.50;77.40;;;;;;10522108;28;20117;-31
2023/04/11 18:03:24;;;;;;;7.32;1.48;;;17.90;87.30;;;;;;10480863;28;20044;-30
2023/04/11 18:08:28;;;;;;;7.20;1.50;;;19.20;76.20;;;;;;10519603;28;20048;-30
2023/04/11 18:13:30;;;;;;;7.32;1.50;;;20.70;65.20;;;;;;10512158;28;20401;-30
2023/04/11 18:18:32;;;;;;;6.15;1.33;;;20.60;62.10;;;;;;10521978;28;20082;-31
2023/04/11 18:23:35;;;;;;;7.90;1.20;;;20.80;66.20;;;;;;10517500;28;20131;-33
2023/04/11 18:28:37;;;;;;;6.50;1.20;;;21.40;62.40;;;;;;10513719;28;20139;-29
2023/04/11 18:33:39;;;;;;;6.25;1.08;;;21.30;64.00;;;;;;10511048;28;20067;-29
2023/04/11 18:38:42;;;;;;;7.00;1.33;;;21.60;61.90;;;;;;10519937;28;20048;-32
2023/04/11 18:43:46;;;;;;;5.80;1.17;;;21.70;60.80;;;;;;10530563;28;20473;-31
2023/04/11 18:48:48;;;;;;;4.63;1.40;;;21.70;60.70;;;;;;10522877;28;20052;-33
2023/04/11 18:53:52;;;;;;;11.52;1.63;;;21.70;60.40;;;;;;10518281;28;20497;-30
2023/04/11 18:58:54;;;;;;;8.75;1.85;;;21.80;60.10;;;;;;10507239;28;20075;-30
2023/04/11 19:03:57;;;;;;;6.30;1.25;;;21.80;60.00;;;;;;10504515;28;20071;-30
2023/04/11 19:09:01;;;;;;;7.70;1.73;;;21.80;59.80;;;;;;10513485;28;20049;-30
2023/04/11 19:14:03;;;;;;;5.32;1.15;;;21.80;60.00;;;;;;10522719;28;20052;-30
2023/04/11 19:19:05;;;;;;;5.93;1.23;;;21.80;59.70;;;;;;10526302;28;20059;-30
2023/04/11 19:24:08;;;;;;;;;;;21.80;59.70;;;;;;10501340;28;20099;-31
2023/04/11 19:29:13;;;;;;;6.53;1.38;;;21.80;59.90;;;;;;10520301;28;20384;-31
2023/04/11 19:34:15;;;;;;;6.97;1.58;;;21.50;61.80;;;;;;10510132;28;20048;-30
2023/04/11 19:39:18;;;;;;;;;;;21.10;62.00;;;;;;10512541;28;20060;-31
2023/04/11 19:44:20;;;;;;;5.00;1.20;;;21.00;63.00;;;;;;10508219;28;20384;-32
2023/04/11 19:49:22;;;;;;;9.73;1.77;;;19.30;70.50;;;;;;10526603;28;20044;-35
2023/04/11 19:54:25;;;;;;;5.35;1.48;;;17.00;67.60;;;;;;10523867;28;20068;-31
2023/04/11 19:59:27;;;;;;;4.32;1.63;;;19.20;74.90;;;;;;10511832;28;20142;-31
2023/04/11 20:04:29;;;;;;;2.90;1.30;;;20.00;66.30;;;;;;10516778;28;20070;-31
2023/04/11 20:09:33;;;;;;;6.68;1.67;;;20.80;64.50;;;;;;10523359;28;20048;-31
2023/04/11 20:14:36;;;;;;;11.45;1.70;;;20.90;64.00;;;;;;10522083;28;20123;-31
2023/04/11 20:19:40;;;;;;;3.53;1.80;;;21.10;62.20;;;;;;10530360;28;20052;-30
2023/04/11 20:24:45;;;;;;;8.02;1.90;;;21.10;62.80;;;;;;10515202;28;20456;-30
2023/04/11 20:29:48;;;;;;;7.63;1.92;;;21.20;61.90;;;;;;10524668;28;20040;-30
2023/04/11 20:34:50;;;;;;;2.92;1.27;;;20.80;62.90;;;;;;10521145;28;20047;-30
2023/04/11 20:39:53;;;;;;;5.47;1.42;;;20.60;63.60;;;;;;10519592;28;20118;-30
2023/04/11 20:45:02;;;;;;;5.65;1.60;;;19.60;69.90;;;;;;10516148;28;20097;-32
2023/04/11 20:50:04;;;;;;;4.30;1.67;;;20.50;66.00;;;;;;10527497;28;20813;-30
2023/04/11 20:55:09;;;;;;;;;;;19.90;68.30;;;;;;10530828;28;20047;-31
2023/04/11 21:00:12;;;;;;;3.75;1.38;;;20.50;65.90;;;;;;10529475;28;19970;-32
2023/04/11 21:05:16;;;;;;;7.20;1.80;;;18.50;76.00;;;;;;10519331;28;20124;-30
2023/04/11 21:10:20;;;;;;;9.50;3.00;;;18.90;74.80;;;;;;10517182;28;20543;-31
2023/04/11 21:15:22;;;;;;;4.72;2.13;;;19.90;69.40;;;;;;10523933;28;20044;-28
2023/04/11 21:20:24;;;;;;;7.38;3.65;;;18.70;70.00;;;;;;10523029;28;20492;-31
2023/04/11 21:25:27;;;;;;;10.30;3.60;;;19.60;69.80;;;;;;10502557;28;20052;-31
2023/04/11 21:30:30;;;;;;;13.25;4.18;;;20.30;66.00;;;;;;10516397;28;20044;-31
2023/04/11 21:35:32;;;;;;;9.32;3.65;;;20.30;65.50;;;;;;10510269;28;20095;-34
2023/04/11 21:40:35;;;;;;;8.10;4.10;;;20.20;64.10;;;;;;10527950;28;20058;-34
2023/04/11 21:45:37;;;;;;;7.40;3.15;;;20.40;65.00;;;;;;10496297;28;20763;-28
2023/04/11 21:50:39;;;;;;;11.32;5.15;;;20.00;63.90;;;;;;10527271;28;20051;-31
2023/04/11 21:55:46;;;;;;;11.93;4.80;;;20.30;65.70;;;;;;10512603;28;20458;-31
2023/04/11 22:00:48;;;;;;;11.15;5.90;;;20.20;65.30;;;;;;10518535;28;20151;-31
2023/04/11 22:05:51;;;;;;;9.50;5.18;;;20.10;66.20;;;;;;10519484;28;20113;-31
2023/04/11 22:10:54;;;;;;;13.25;5.63;;;20.10;66.10;;;;;;10526765;28;20044;-33
2023/04/11 22:16:03;;;;;;;12.70;6.00;;;19.90;65.60;;;;;;10512069;28;20072;-38
2023/04/11 22:21:08;;;;;;;9.63;5.30;;;20.00;65.70;;;;;;10515341;28;20044;-37
2023/04/11 22:26:11;;;;;;;9.98;4.90;;;20.00;65.90;;;;;;10515456;28;20052;-31
2023/04/11 22:31:13;;;;;;;12.20;5.13;;;19.90;66.30;;;;;;10511619;28;20092;-31
2023/04/11 22:36:15;;;;;;;8.80;4.03;;;19.30;69.80;;;;;;10530658;28;20559;-31
2023/04/11 22:41:20;;;;;;;12.00;5.78;;;19.70;67.20;;;;;;10522679;28;20055;-32
2023/04/11 22:46:22;;;;;;;9.32;4.85;;;19.80;66.50;;;;;;10519933;28;20101;-29
2023/04/11 22:51:28;;;;;;;9.77;4.43;;;19.60;67.30;;;;;;10515641;28;20048;-31
2023/04/11 22:56:32;;;;;;;10.27;5.15;;;19.60;66.70;;;;;;10519185;28;20056;-32
2023/04/11 23:01:34;;;;;;;7.00;3.45;;;19.30;68.70;;;;;;10514031;28;20110;-30
2023/04/11 23:06:36;;;;;;;;;;;19.30;67.90;;;;;;10507231;28;20047;-30
2023/04/11 23:11:39;;;;;;;12.65;5.90;;;19.50;67.90;;;;;;10517967;28;20406;-31
2023/04/11 23:16:41;;;;;;;8.48;4.00;;;19.50;68.00;;;;;;10514382;28;20036;-33
2023/04/11 23:21:44;;;;;;;11.35;5.97;;;19.30;68.70;;;;;;10512452;28;20067;-33
2023/04/11 23:26:47;;;;;;;11.88;6.10;;;19.30;67.60;;;;;;10505731;28;20058;-30
2023/04/11 23:31:49;;;;;;;8.57;4.65;;;19.30;67.90;;;;;;10522907;28;20101;-30
2023/04/11 23:36:51;;;;;;;9.38;4.53;;;19.30;67.80;;;;;;10518812;28;20123;-31
2023/04/11 23:41:55;;;;;;;12.77;6.55;;;19.40;67.20;;;;;;10524338;28;20051;-33
2023/04/11 23:46:58;;;;;;;9.27;5.07;;;19.50;67.40;;;;;;10519292;28;20052;-31
2023/04/11 23:52:01;;;;;;;9.40;4.78;;;19.10;68.60;;;;;;10512747;28;20102;-31
2023/04/11 23:57:04;;;;;;;;;;;19.10;68.00;;;;;;10516413;28;20386;-30
